createdAt,value
2022-09-28T00:02:24.427Z,2.95
2022-09-28T00:04:51.298Z,2.65
2022-09-28T00:07:18.063Z,2.70
2022-09-28T00:09:44.893Z,1.58
2022-09-28T00:12:11.864Z,1.98
2022-09-28T00:14:40.625Z,3.30
2022-09-28T00:17:08.360Z,3.10
2022-09-28T00:19:35.182Z,3.40
2022-09-28T00:22:02.070Z,4.07
2022-09-28T00:24:29.628Z,3.50
2022-09-28T00:27:00.734Z,2.95
2022-09-28T00:29:29.059Z,3.00
2022-09-28T00:32:02.538Z,2.70
2022-09-28T00:34:32.088Z,2.25
2022-09-28T00:36:59.600Z,2.95
2022-09-28T00:39:27.205Z,2.85
2022-09-28T00:41:54.957Z,2.95
2022-09-28T00:44:42.277Z,3.25
2022-09-28T00:47:31.309Z,2.53
2022-09-28T00:49:58.223Z,4.53
2022-09-28T00:52:53.323Z,4.57
2022-09-28T00:55:27.050Z,2.75
2022-09-28T00:57:58.383Z,4.13
2022-09-28T01:00:25.904Z,2.47
2022-09-28T01:02:53.148Z,3.17
2022-09-28T01:05:20.997Z,1.92
2022-09-28T01:07:48.696Z,3.00
2022-09-28T01:10:15.932Z,1.77
2022-09-28T01:12:45.949Z,3.20
2022-09-28T01:15:15.436Z,2.58
2022-09-28T01:17:52.314Z,4.60
2022-09-28T01:20:22.678Z,2.45
2022-09-28T01:23:08.307Z,1.63
2022-09-28T01:25:38.425Z,3.80
2022-09-28T01:28:12.133Z,3.75
2022-09-28T01:30:47.217Z,1.98
2022-09-28T01:33:22.557Z,2.95
2022-09-28T01:36:07.501Z,2.70
2022-09-28T01:38:48.284Z,1.73
2022-09-28T01:41:17.951Z,2.47
2022-09-28T01:43:54.866Z,4.22
2022-09-28T01:46:27.448Z,2.42
2022-09-28T01:48:57.881Z,1.35
2022-09-28T01:51:38.100Z,2.20
2022-09-28T01:54:14.123Z,2.13
2022-09-28T01:57:07.078Z,3.47
2022-09-28T01:59:36.872Z,4.05
2022-09-28T02:02:10.145Z,2.78
2022-09-28T02:04:42.914Z,2.58
2022-09-28T02:07:21.216Z,2.08
2022-09-28T02:09:56.133Z,4.97
2022-09-28T02:12:33.060Z,3.63
2022-09-28T02:15:12.691Z,4.22
2022-09-28T02:17:40.065Z,2.47
2022-09-28T02:20:07.850Z,2.13
2022-09-28T02:22:43.967Z,3.63
2022-09-28T02:25:30.294Z,2.45
2022-09-28T02:28:04.786Z,1.70
2022-09-28T02:30:33.530Z,5.13
2022-09-28T02:33:07.538Z,2.17
2022-09-28T02:35:35.510Z,1.63
2022-09-28T02:38:02.887Z,5.70
2022-09-28T02:40:33.214Z,1.52
2022-09-28T02:43:24.024Z,3.00
2022-09-28T02:46:03.631Z,2.22
2022-09-28T02:49:22.378Z,3.67
2022-09-28T02:52:19.478Z,2.30
2022-09-28T02:55:00.196Z,2.40
2022-09-28T02:57:48.517Z,4.07
2022-09-28T03:00:22.362Z,2.00
2022-09-28T03:03:06.120Z,4.78
2022-09-28T03:05:50.017Z,2.50
2022-09-28T03:08:41.073Z,3.25
2022-09-28T03:11:28.609Z,3.40
2022-09-28T03:13:56.293Z,2.88
2022-09-28T03:16:32.198Z,2.00
2022-09-28T03:18:59.578Z,1.85
2022-09-28T03:21:26.474Z,2.20
2022-09-28T03:23:53.322Z,4.07
2022-09-28T03:26:20.246Z,3.05
2022-09-28T03:28:47.290Z,2.00
2022-09-28T03:31:21.064Z,4.80
2022-09-28T03:33:48.136Z,3.45
2022-09-28T03:36:15.319Z,1.50
2022-09-28T03:38:43.388Z,1.77
2022-09-28T03:41:11.104Z,4.25
2022-09-28T03:43:41.250Z,3.80
2022-09-28T03:46:08.411Z,2.95
2022-09-28T03:48:40.808Z,5.45
2022-09-28T03:51:11.162Z,6.95
2022-09-28T03:53:39.709Z,2.72
2022-09-28T03:56:15.379Z,4.45
2022-09-28T03:58:42.998Z,2.30
2022-09-28T04:01:16.999Z,3.80
2022-09-28T04:03:46.783Z,5.47
2022-09-28T04:06:14.773Z,5.95
2022-09-28T04:08:43.166Z,2.35
2022-09-28T04:11:10.415Z,2.92
2022-09-28T04:13:37.459Z,3.15
2022-09-28T04:16:06.676Z,3.25
2022-09-28T04:18:35.293Z,4.20
2022-09-28T04:21:14.641Z,3.45
2022-09-28T04:23:46.234Z,3.92
2022-09-28T04:26:25.113Z,3.20
2022-09-28T04:29:10.732Z,2.55
2022-09-28T04:31:46.929Z,2.95
2022-09-28T04:34:17.547Z,3.45
2022-09-28T04:36:45.418Z,3.58
2022-09-28T04:39:14.819Z,4.45
2022-09-28T04:41:47.321Z,2.20
2022-09-28T04:44:14.481Z,2.65
2022-09-28T04:46:41.300Z,3.65
2022-09-28T04:49:26.771Z,2.67
2022-09-28T04:51:56.493Z,2.13
2022-09-28T04:54:23.321Z,4.82
2022-09-28T04:56:51.263Z,4.30
2022-09-28T04:59:18.213Z,3.80
2022-09-28T05:01:45.360Z,4.25
2022-09-28T05:04:33.278Z,3.58
2022-09-28T05:07:18.278Z,6.22
2022-09-28T05:09:45.180Z,3.65
2022-09-28T05:12:11.999Z,3.25
2022-09-28T05:14:39.023Z,3.28
2022-09-28T05:17:06.034Z,3.33
2022-09-28T05:19:39.705Z,7.38
2022-09-28T05:22:11.441Z,6.90
2022-09-28T05:24:42.822Z,4.13
2022-09-28T05:27:09.884Z,6.63
2022-09-28T05:29:36.769Z,3.17
2022-09-28T05:37:48.709Z,4.05
2022-09-28T05:40:16.277Z,4.30
2022-09-28T05:42:43.358Z,4.38
2022-09-28T05:45:10.839Z,5.57
2022-09-28T05:47:41.947Z,5.65
2022-09-28T05:50:16.064Z,7.35
2022-09-28T05:52:43.888Z,2.47
2022-09-28T05:55:11.432Z,3.50
2022-09-28T05:57:38.904Z,2.38
2022-09-28T06:00:09.357Z,3.22
2022-09-28T06:03:05.384Z,7.30
2022-09-28T06:05:36.351Z,3.22
2022-09-28T06:08:05.404Z,7.28
2022-09-28T06:10:33.500Z,9.82
2022-09-28T06:13:01.595Z,11.32
2022-09-28T06:15:30.909Z,3.08
2022-09-28T06:18:00.742Z,5.93
2022-09-28T06:21:01.382Z,3.75
2022-09-28T06:23:34.666Z,3.55
2022-09-28T06:26:01.522Z,5.97
2022-09-28T06:28:30.161Z,4.57
2022-09-28T06:31:00.567Z,6.18
2022-09-28T06:33:28.191Z,5.75
2022-09-28T06:35:55.117Z,2.80
2022-09-28T06:38:22.031Z,2.83
2022-09-28T06:40:49.644Z,4.13
2022-09-28T06:43:16.602Z,2.05
2022-09-28T06:46:02.755Z,3.13
2022-09-28T06:48:29.740Z,5.93
2022-09-28T06:50:56.892Z,4.05
2022-09-28T06:53:48.659Z,3.13
2022-09-28T06:56:32.693Z,9.15
2022-09-28T06:59:00.133Z,5.15
2022-09-28T07:01:28.821Z,11.98
2022-09-28T07:04:28.447Z,3.67
2022-09-28T07:07:33.217Z,10.35
2022-09-28T07:10:15.688Z,10.43
2022-09-28T07:13:03.603Z,8.07
2022-09-28T07:15:39.220Z,6.32
2022-09-28T07:18:07.426Z,13.45
2022-09-28T07:20:45.672Z,5.40
2022-09-28T07:23:19.762Z,9.88
2022-09-28T07:26:23.987Z,6.22
2022-09-28T07:29:21.412Z,5.07
2022-09-28T07:34:58.728Z,9.43
2022-09-28T07:37:46.347Z,4.50
2022-09-28T07:40:31.721Z,4.72
2022-09-28T07:43:06.677Z,11.80
2022-09-28T07:45:37.659Z,6.05
2022-09-28T07:48:05.239Z,5.03
2022-09-28T07:51:04.531Z,8.25
2022-09-28T07:53:44.550Z,18.27
2022-09-28T07:56:31.058Z,6.55
2022-09-28T07:59:20.948Z,4.90
2022-09-28T08:02:06.471Z,5.00
2022-09-28T08:04:33.410Z,7.07
2022-09-28T08:07:00.463Z,3.10
2022-09-28T08:09:27.324Z,4.78
2022-09-28T08:12:14.167Z,4.60
2022-09-28T08:15:16.572Z,7.72
2022-09-28T08:20:52.595Z,13.90
2022-09-28T08:23:20.442Z,2.05
2022-09-28T08:25:52.634Z,5.03
2022-09-28T08:28:22.702Z,5.20
2022-09-28T08:30:52.418Z,6.05
2022-09-28T08:33:31.565Z,5.32
2022-09-28T08:36:16.842Z,7.35
2022-09-28T08:39:01.465Z,3.55
2022-09-28T08:42:02.337Z,7.22
2022-09-28T08:45:23.184Z,3.72
2022-09-28T08:49:24.160Z,2.47
2022-09-28T08:52:30.265Z,3.38
2022-09-28T08:55:04.979Z,4.07
2022-09-28T08:57:55.613Z,3.97
2022-09-28T09:00:33.656Z,3.50
2022-09-28T09:03:06.716Z,7.53
2022-09-28T09:06:18.730Z,2.80
2022-09-28T09:09:36.602Z,4.88
2022-09-28T09:12:10.002Z,3.28
2022-09-28T09:15:01.372Z,3.42
2022-09-28T09:17:59.212Z,7.60
2022-09-28T09:21:02.874Z,10.15
2022-09-28T09:23:54.240Z,5.60
2022-09-28T09:26:35.283Z,10.48
2022-09-28T09:29:20.865Z,4.60
2022-09-28T09:32:03.104Z,2.78
2022-09-28T09:34:38.060Z,4.68
2022-09-28T09:37:37.616Z,4.00
2022-09-28T09:40:38.791Z,9.48
2022-09-28T09:43:47.792Z,2.08
2022-09-28T09:47:08.201Z,19.80
2022-09-28T09:50:05.447Z,2.20
2022-09-28T09:52:52.067Z,8.20
2022-09-28T09:55:34.485Z,7.25
2022-09-28T09:58:38.580Z,8.43
2022-09-28T10:01:19.501Z,5.88
2022-09-28T10:04:20.625Z,5.78
2022-09-28T10:06:51.656Z,5.20
2022-09-28T10:09:30.508Z,2.97
2022-09-28T10:12:15.795Z,4.03
2022-09-28T10:14:42.624Z,7.78
2022-09-28T10:17:12.112Z,5.55
2022-09-28T10:19:57.308Z,2.20
2022-09-28T10:22:51.860Z,4.40
2022-09-28T10:25:20.067Z,6.85
2022-09-28T10:27:51.485Z,6.35
2022-09-28T10:30:25.425Z,6.90
2022-09-28T10:32:55.558Z,4.22
2022-09-28T10:35:27.167Z,7.57
2022-09-28T10:38:01.776Z,7.35
2022-09-28T10:41:01.783Z,5.25
2022-09-28T10:44:06.446Z,5.40
2022-09-28T10:46:43.377Z,6.15
2022-09-28T10:49:18.879Z,4.95
2022-09-28T10:51:56.230Z,3.03
2022-09-28T10:54:32.173Z,5.65
2022-09-28T10:57:01.054Z,2.95
2022-09-28T10:59:39.967Z,3.97
2022-09-28T11:02:30.389Z,7.57
2022-09-28T11:05:06.738Z,8.50
2022-09-28T11:07:48.049Z,4.97
2022-09-28T11:10:28.384Z,4.70
2022-09-28T11:13:00.180Z,3.58
2022-09-28T11:15:33.339Z,4.60
2022-09-28T11:18:29.011Z,2.67
2022-09-28T11:21:17.320Z,1.88
2022-09-28T11:24:07.566Z,5.10
2022-09-28T11:26:48.079Z,5.18
2022-09-28T11:29:38.071Z,5.05
2022-09-28T11:32:28.202Z,2.10
2022-09-28T11:35:33.331Z,4.15
2022-09-28T11:38:36.506Z,4.82
2022-09-28T11:41:23.362Z,2.95
2022-09-28T11:44:02.525Z,4.97
2022-09-28T11:47:04.908Z,3.72
2022-09-28T11:49:40.144Z,7.32
2022-09-28T11:52:17.877Z,2.63
2022-09-28T11:54:52.638Z,4.15
2022-09-28T11:57:24.071Z,7.15
2022-09-28T12:00:01.862Z,2.97
2022-09-28T12:02:36.929Z,3.40
2022-09-28T12:05:20.003Z,3.13
2022-09-28T12:07:54.611Z,14.27
2022-09-28T12:10:55.542Z,12.23
2022-09-28T12:13:47.770Z,2.97
2022-09-28T12:20:21.148Z,3.92
2022-09-28T12:23:01.230Z,5.30
2022-09-28T12:25:34.378Z,4.07
2022-09-28T12:28:12.997Z,4.55
2022-09-28T12:30:43.893Z,9.60
2022-09-28T12:33:15.575Z,6.13
2022-09-28T12:35:54.522Z,6.43
2022-09-28T12:38:42.551Z,1.98
2022-09-28T12:41:32.655Z,5.53
2022-09-28T12:44:33.217Z,5.43
2022-09-28T12:47:19.206Z,5.55
2022-09-28T12:53:15.814Z,4.78
2022-09-28T12:55:56.410Z,3.88
2022-09-28T12:58:41.253Z,4.13
2022-09-28T13:01:25.796Z,11.75
2022-09-28T13:03:52.611Z,26.58
2022-09-28T13:06:19.347Z,5.10
2022-09-28T13:09:10.293Z,14.05
2022-09-28T13:11:43.982Z,9.88
2022-09-28T13:14:30.610Z,3.97
2022-09-28T13:17:17.675Z,4.68
2022-09-28T13:19:55.517Z,4.65
2022-09-28T13:22:35.265Z,6.07
2022-09-28T13:25:14.667Z,3.22
2022-09-28T13:27:49.900Z,15.23
2022-09-28T13:30:19.540Z,9.40
2022-09-28T13:32:48.504Z,6.53
2022-09-28T13:35:20.604Z,3.80
2022-09-28T13:37:48.878Z,5.15
2022-09-28T13:40:15.783Z,5.38
2022-09-28T13:42:42.658Z,10.63
2022-09-28T13:45:22.021Z,9.02
2022-09-28T13:47:54.504Z,3.33
2022-09-28T13:50:27.675Z,3.67
2022-09-28T13:53:01.292Z,2.85
2022-09-28T13:55:33.817Z,2.25
2022-09-28T13:58:14.706Z,3.95
2022-09-28T14:00:51.575Z,5.00
2022-09-28T14:03:24.383Z,6.32
2022-09-28T14:06:00.831Z,9.45
2022-09-28T14:08:38.595Z,5.70
2022-09-28T14:11:40.330Z,3.88
2022-09-28T14:14:13.975Z,2.38
2022-09-28T14:16:42.447Z,2.35
2022-09-28T14:19:15.859Z,4.68
2022-09-28T14:21:51.736Z,1.10
2022-09-28T14:24:31.935Z,3.15
2022-09-28T14:27:01.605Z,5.97
2022-09-28T14:29:39.230Z,1.95
2022-09-28T14:34:41.040Z,2.17
2022-09-28T14:37:41.624Z,4.47
2022-09-28T14:40:38.954Z,4.70
2022-09-28T14:43:42.841Z,4.43
2022-09-28T14:46:15.559Z,3.13
2022-09-28T14:48:53.783Z,2.97
2022-09-28T14:51:26.520Z,3.75
2022-09-28T14:53:55.508Z,3.72
2022-09-28T14:56:22.549Z,3.10
2022-09-28T14:58:55.054Z,2.28
2022-09-28T15:01:24.795Z,5.38
2022-09-28T15:03:56.320Z,3.78
2022-09-28T15:08:50.425Z,4.88
2022-09-28T15:11:23.676Z,1.95
2022-09-28T15:13:54.037Z,4.75
2022-09-28T15:16:24.579Z,2.83
2022-09-28T15:19:09.705Z,11.20
2022-09-28T15:21:43.935Z,5.70
2022-09-28T15:25:01.442Z,9.32
2022-09-28T15:27:39.304Z,5.32
2022-09-28T15:30:25.619Z,18.17
2022-09-28T15:33:19.316Z,5.32
2022-09-28T15:35:49.898Z,3.83
2022-09-28T15:38:17.645Z,4.90
2022-09-28T15:40:45.930Z,5.70
2022-09-28T15:43:32.994Z,12.35
2022-09-28T15:46:21.173Z,33.63
2022-09-28T15:48:55.591Z,29.92
2022-09-28T15:51:24.702Z,55.88
2022-09-28T15:54:25.504Z,38.42
2022-09-28T15:56:55.385Z,12.75
2022-09-28T15:59:30.906Z,21.85
2022-09-28T16:02:19.472Z,19.27
2022-09-28T16:04:50.421Z,12.63
2022-09-28T16:07:23.338Z,20.33
2022-09-28T16:10:01.851Z,18.85
2022-09-28T16:12:43.369Z,16.75
2022-09-28T16:15:18.284Z,19.90
2022-09-28T16:18:03.158Z,8.25
2022-09-28T16:20:36.510Z,16.25
2022-09-28T16:23:30.810Z,12.40
2022-09-28T16:26:28.761Z,6.22
2022-09-28T16:28:55.685Z,8.48
2022-09-28T16:31:27.436Z,18.08
2022-09-28T16:33:55.888Z,11.82
2022-09-28T16:36:25.922Z,25.58
2022-09-28T16:38:54.403Z,20.10
2022-09-28T16:41:25.993Z,16.40
2022-09-28T16:44:02.443Z,17.55
2022-09-28T16:46:37.499Z,18.35
2022-09-28T16:49:06.871Z,20.35
2022-09-28T16:51:33.823Z,28.85
2022-09-28T16:54:32.173Z,17.70
2022-09-28T16:56:59.311Z,19.92
2022-09-28T16:59:26.216Z,17.77
2022-09-28T17:01:53.131Z,15.15
2022-09-28T17:04:19.871Z,12.00
2022-09-28T17:06:46.884Z,16.63
2022-09-28T17:09:13.740Z,8.65
2022-09-28T17:11:40.604Z,5.80
2022-09-28T17:14:08.887Z,20.63
2022-09-28T17:17:06.159Z,14.38
2022-09-28T17:19:25.135Z,27.27
2022-09-28T17:21:53.106Z,13.40
2022-09-28T17:24:20.734Z,15.70
2022-09-28T17:26:50.229Z,12.48
2022-09-28T17:29:17.826Z,7.05
2022-09-28T17:31:46.181Z,7.93
2022-09-28T17:34:15.273Z,8.05
2022-09-28T17:36:43.344Z,7.20
2022-09-28T17:39:15.735Z,21.88
2022-09-28T17:41:42.654Z,16.17
2022-09-28T17:44:09.738Z,13.60
2022-09-28T17:46:40.827Z,7.97
2022-09-28T17:49:11.682Z,7.82
2022-09-28T17:51:38.761Z,7.45
2022-09-28T17:54:07.639Z,8.73
2022-09-28T17:56:35.380Z,10.80
2022-09-28T17:59:07.644Z,11.25
2022-09-28T18:01:37.899Z,8.95
2022-09-28T18:04:08.129Z,7.70
2022-09-28T18:06:37.276Z,19.73
2022-09-28T18:09:05.441Z,9.23
2022-09-28T18:11:33.635Z,10.57
2022-09-28T18:14:00.900Z,7.72
2022-09-28T18:16:28.884Z,18.00
2022-09-28T18:18:56.037Z,3.50
2022-09-28T18:21:22.958Z,5.38
2022-09-28T18:23:51.053Z,6.07
2022-09-28T18:26:21.062Z,4.32
2022-09-28T18:28:54.295Z,4.85
2022-09-28T18:31:21.503Z,3.88
2022-09-28T18:36:35.743Z,13.38
2022-09-28T18:39:03.063Z,10.23
2022-09-28T18:41:29.944Z,8.07
2022-09-28T18:44:02.823Z,5.93
2022-09-28T18:46:34.771Z,5.32
2022-09-28T18:49:01.961Z,8.50
2022-09-28T18:51:29.260Z,5.57
2022-09-28T18:53:56.198Z,12.80
2022-09-28T18:56:23.031Z,14.45
2022-09-28T18:58:51.710Z,5.50
2022-09-28T19:01:36.556Z,12.27
2022-09-28T19:04:06.160Z,6.00
2022-09-28T19:06:34.406Z,10.20
2022-09-28T19:09:02.015Z,7.75
2022-09-28T19:11:28.965Z,4.53
2022-09-28T19:13:56.433Z,7.57
2022-09-28T19:16:29.995Z,8.13
2022-09-28T19:18:58.395Z,6.78
2022-09-28T19:21:25.693Z,7.80
2022-09-28T19:23:55.143Z,6.57
2022-09-28T19:26:25.336Z,5.78
2022-09-28T19:28:52.722Z,8.38
2022-09-28T19:31:19.922Z,6.47
2022-09-28T19:33:48.242Z,8.18
2022-09-28T19:36:18.520Z,5.93
2022-09-28T19:38:46.314Z,6.38
2022-09-28T19:41:39.334Z,6.03
2022-09-28T19:44:21.282Z,5.55
2022-09-28T19:46:48.140Z,4.63
2022-09-28T19:49:22.683Z,8.07
2022-09-28T19:52:11.658Z,9.20
2022-09-28T19:54:38.175Z,4.93
2022-09-28T19:57:08.053Z,6.38
2022-09-28T19:59:36.776Z,8.30
2022-09-28T20:02:05.837Z,4.55
2022-09-28T20:04:32.764Z,4.18
2022-09-28T20:06:59.753Z,5.93
2022-09-28T20:09:26.647Z,13.50
2022-09-28T20:11:53.473Z,10.63
2022-09-28T20:14:22.440Z,17.30
2022-09-28T20:16:51.586Z,5.85
2022-09-28T20:19:21.500Z,9.25
2022-09-28T20:21:48.848Z,6.75
2022-09-28T20:24:17.334Z,5.88
2022-09-28T20:26:46.038Z,7.07
2022-09-28T20:29:13.465Z,8.43
2022-09-28T20:31:40.482Z,4.93
2022-09-28T20:34:07.485Z,8.98
2022-09-28T20:36:34.562Z,4.57
2022-09-28T20:39:02.276Z,5.95
2022-09-28T20:41:36.768Z,4.22
2022-09-28T20:44:06.374Z,6.47
2022-09-28T20:46:35.605Z,7.75
2022-09-28T20:49:03.650Z,6.15
2022-09-28T20:51:31.168Z,4.32
2022-09-28T20:53:59.169Z,3.90
2022-09-28T20:56:31.675Z,5.53
2022-09-28T20:58:58.521Z,5.93
2022-09-28T21:01:27.896Z,10.20
2022-09-28T21:04:00.195Z,8.07
2022-09-28T21:06:29.874Z,7.78
2022-09-28T21:08:56.855Z,11.63
2022-09-28T21:11:25.737Z,9.45
2022-09-28T21:13:54.797Z,9.80
2022-09-28T21:16:21.757Z,9.32
2022-09-28T21:18:48.592Z,10.40
2022-09-28T21:21:18.172Z,5.60
2022-09-28T21:23:45.532Z,6.22
2022-09-28T21:26:24.534Z,5.50
2022-09-28T21:28:56.063Z,8.00
2022-09-28T21:31:28.718Z,5.55
2022-09-28T21:33:59.642Z,4.30
2022-09-28T21:36:26.517Z,6.45
2022-09-28T21:38:56.184Z,8.18
2022-09-28T21:41:24.302Z,6.53
2022-09-28T21:43:51.247Z,4.80
2022-09-28T21:46:18.284Z,3.55
2022-09-28T21:48:45.352Z,4.90
2022-09-28T21:51:15.906Z,4.40
2022-09-28T21:53:42.905Z,3.78
2022-09-28T21:56:12.146Z,4.47
2022-09-28T21:58:40.198Z,3.33
2022-09-28T22:01:16.928Z,4.95
2022-09-28T22:03:47.449Z,8.77
2022-09-28T22:06:16.295Z,7.90
2022-09-28T22:08:43.365Z,7.05
2022-09-28T22:11:14.058Z,4.85
2022-09-28T22:13:43.765Z,9.43
2022-09-28T22:16:12.035Z,7.80
2022-09-28T22:18:39.709Z,8.05
2022-09-28T22:21:11.464Z,11.23
2022-09-28T22:23:39.029Z,8.55
2022-09-28T22:26:10.873Z,7.40
2022-09-28T22:28:39.774Z,4.53
2022-09-28T22:31:06.680Z,5.18
2022-09-28T22:33:34.183Z,5.65
2022-09-28T22:36:01.117Z,7.40
2022-09-28T22:38:32.162Z,4.82
2022-09-28T22:40:59.062Z,4.35
2022-09-28T22:43:26.973Z,4.18
2022-09-28T22:46:11.909Z,6.65
2022-09-28T22:48:39.115Z,5.75
2022-09-28T22:51:07.178Z,5.20
2022-09-28T22:53:35.268Z,2.67
2022-09-28T22:56:05.684Z,3.78
2022-09-28T22:58:34.142Z,3.05
2022-09-28T23:01:11.382Z,4.97
2022-09-28T23:03:42.299Z,3.50
2022-09-28T23:06:11.337Z,7.78
2022-09-28T23:08:39.055Z,3.53
2022-09-28T23:11:06.578Z,3.15
2022-09-28T23:13:33.428Z,4.95
2022-09-28T23:16:03.280Z,4.15
2022-09-28T23:18:33.017Z,4.70
2022-09-28T23:21:02.138Z,6.50
2022-09-28T23:23:29.635Z,7.97
2022-09-28T23:25:57.259Z,4.65
2022-09-28T23:28:26.198Z,3.95
2022-09-28T23:30:53.914Z,4.25
2022-09-28T23:33:21.683Z,3.67
2022-09-28T23:35:49.509Z,2.85
2022-09-28T23:38:18.364Z,3.45
2022-09-28T23:40:46.817Z,3.33
2022-09-28T23:43:14.657Z,4.68
2022-09-28T23:45:44.711Z,7.97
2022-09-28T23:48:12.854Z,5.72
2022-09-28T23:50:39.632Z,3.90
2022-09-28T23:53:06.671Z,4.25
2022-09-28T23:55:33.534Z,2.72
2022-09-28T23:58:00.424Z,4.63
